Time;durP1;ratioP1;P1;durP2;ratioP2;P2;SDS_P1;SDS_P2;PMS_P1;PMS_P2;Temp;Humidity;BMP_temperature;BMP_pressure;BME280_temperature;BME280_humidity;BME280_pressure;Samples;Min_cycle;Max_cycle;Signal;HPM_P1;HPM_P2
2021/09/23 00:00:10;;;;;;;47.30;29.52;;;13.20;99.90;;;;;;5064175;28;20374;-50
2021/09/23 00:05:13;;;;;;;52.28;30.70;;;13.10;99.90;;;;;;5070040;28;20115;-47
2021/09/23 00:07:42;;;;;;;43.45;29.17;;;13.10;99.90;;;;;;5067218;28;20033;-47
2021/09/23 00:10:11;;;;;;;47.33;32.20;;;13.10;99.90;;;;;;5062352;28;20029;-46
2021/09/23 00:12:37;;;;;;;43.78;29.23;;;13.10;99.90;;;;;;5065450;28;20031;-47
2021/09/23 00:15:04;;;;;;;49.80;33.15;;;13.10;99.90;;;;;;5070164;28;20032;-47
2021/09/23 00:17:30;;;;;;;48.53;28.73;;;13.10;99.90;;;;;;5065198;28;20058;-47
2021/09/23 00:19:55;;;;;;;46.78;30.45;;;13.10;99.90;;;;;;5061331;28;20141;-47
2021/09/23 00:22:21;;;;;;;51.42;30.05;;;13.00;99.90;;;;;;5069874;28;20060;-47
2021/09/23 00:24:46;;;;;;;49.10;30.70;;;13.10;99.90;;;;;;5064814;28;20035;-47
2021/09/23 00:27:12;;;;;;;47.92;29.05;;;13.00;99.90;;;;;;5061446;28;20024;-46
2021/09/23 00:29:37;;;;;;;46.08;30.73;;;13.10;99.90;;;;;;5061651;28;20032;-47
2021/09/23 00:32:03;;;;;;;43.88;29.35;;;13.10;99.90;;;;;;5052688;28;20083;-47
2021/09/23 00:34:29;;;;;;;46.53;31.63;;;13.10;99.90;;;;;;5063504;28;20383;-47
2021/09/23 00:36:55;;;;;;;48.55;31.15;;;13.00;99.90;;;;;;5068908;28;20100;-48
2021/09/23 00:39:23;;;;;;;48.78;29.55;;;13.00;99.90;;;;;;5069135;28;20072;-48
2021/09/23 00:41:48;;;;;;;45.78;30.33;;;13.00;99.90;;;;;;5058021;28;20017;-47
2021/09/23 00:44:15;;;;;;;47.75;29.23;;;13.00;99.90;;;;;;5061803;28;20028;-47
2021/09/23 00:46:41;;;;;;;48.80;31.80;;;13.00;99.90;;;;;;5055166;28;20024;-47
2021/09/23 00:49:07;;;;;;;44.33;28.00;;;13.00;99.90;;;;;;5059133;28;20021;-47
2021/09/23 00:51:33;;;;;;;43.53;28.85;;;12.90;99.90;;;;;;5069131;28;20044;-47
2021/09/23 00:53:58;;;;;;;48.05;29.90;;;12.90;99.90;;;;;;5064944;28;20032;-47
2021/09/23 00:56:24;;;;;;;45.65;28.77;;;12.90;99.90;;;;;;5059677;28;20142;-48
2021/09/23 00:58:49;;;;;;;48.80;29.08;;;12.80;99.90;;;;;;5068756;28;20033;-47
2021/09/23 01:01:15;;;;;;;42.42;27.70;;;12.80;99.90;;;;;;5058918;28;20106;-47
2021/09/23 01:03:41;;;;;;;45.25;30.08;;;12.80;99.90;;;;;;5065343;28;20021;-47
2021/09/23 01:06:06;;;;;;;47.47;26.95;;;12.80;99.90;;;;;;5052306;28;20024;-48
2021/09/23 01:08:32;;;;;;;47.92;31.40;;;12.70;99.90;;;;;;5058565;28;20020;-47
2021/09/23 01:10:57;;;;;;;47.38;31.15;;;12.70;99.90;;;;;;5064857;28;20025;-47
2021/09/23 01:13:24;;;;;;;42.75;29.38;;;12.70;99.90;;;;;;5060363;28;20107;-47
2021/09/23 01:15:49;;;;;;;50.72;31.70;;;12.70;99.90;;;;;;5068889;28;20075;-47
2021/09/23 01:18:16;;;;;;;45.15;28.30;;;12.70;99.90;;;;;;5064746;28;20020;-47
2021/09/23 01:20:45;;;;;;;47.72;30.35;;;12.60;99.90;;;;;;5060179;28;20008;-47
2021/09/23 01:23:11;;;;;;;55.13;31.95;;;12.60;99.90;;;;;;5069171;28;20051;-47
2021/09/23 01:25:36;;;;;;;45.33;30.08;;;12.60;99.90;;;;;;5058268;28;20052;-47
2021/09/23 01:28:02;;;;;;;46.65;30.20;;;12.60;99.90;;;;;;5066990;28;20025;-47
2021/09/23 01:30:28;;;;;;;45.90;30.52;;;12.60;99.90;;;;;;5068824;28;20462;-47
2021/09/23 01:32:53;;;;;;;45.22;29.15;;;12.60;99.90;;;;;;5054117;28;20029;-47
2021/09/23 01:35:19;;;;;;;51.58;32.90;;;12.60;99.90;;;;;;5060149;28;20120;-47
2021/09/23 01:37:45;;;;;;;55.63;35.85;;;12.60;99.90;;;;;;5067819;28;20123;-47
2021/09/23 01:40:12;;;;;;;48.78;33.42;;;12.50;99.90;;;;;;5068101;28;20050;-47
2021/09/23 01:42:46;;;;;;;57.53;34.33;;;12.50;99.90;;;;;;5059261;28;20024;-48
2021/09/23 01:45:13;;;;;;;58.15;34.17;;;12.50;99.90;;;;;;5028799;28;20387;-48
2021/09/23 01:47:39;;;;;;;63.45;33.28;;;12.50;99.90;;;;;;5042037;28;20082;-47
2021/09/23 01:50:05;;;;;;;59.25;35.22;;;12.50;99.90;;;;;;5059791;28;20032;-47
2021/09/23 01:52:31;;;;;;;57.60;32.08;;;12.50;99.90;;;;;;5067806;28;20064;-48
2021/09/23 01:54:56;;;;;;;53.75;31.75;;;12.40;99.90;;;;;;5049006;28;20099;-47
2021/09/23 01:57:22;;;;;;;54.60;33.05;;;12.40;99.90;;;;;;5060964;28;20033;-47
2021/09/23 01:59:47;;;;;;;52.25;32.85;;;12.40;99.90;;;;;;5049925;28;20032;-47
2021/09/23 02:02:13;;;;;;;56.47;34.97;;;12.40;99.90;;;;;;5059393;28;20020;-48
2021/09/23 02:04:38;;;;;;;60.20;35.17;;;12.40;99.90;;;;;;5064772;28;20033;-48
2021/09/23 02:07:05;;;;;;;59.08;36.00;;;12.40;99.90;;;;;;5057144;28;20017;-47
2021/09/23 02:09:32;;;;;;;60.88;35.72;;;12.40;99.90;;;;;;5068406;28;20051;-47
2021/09/23 02:11:59;;;;;;;59.70;37.25;;;12.40;99.90;;;;;;5068299;28;20615;-47
2021/09/23 02:14:25;;;;;;;56.50;35.50;;;12.40;99.90;;;;;;5067723;28;20033;-47
2021/09/23 02:16:50;;;;;;;54.83;34.47;;;12.40;99.90;;;;;;5063264;28;20394;-47
2021/09/23 02:19:17;;;;;;;57.40;34.20;;;12.30;99.90;;;;;;5060277;28;20078;-48
2021/09/23 02:21:43;;;;;;;55.80;35.00;;;12.30;99.90;;;;;;5068015;28;20232;-47
2021/09/23 02:24:08;;;;;;;63.38;36.42;;;12.30;99.90;;;;;;5067716;28;20025;-47
2021/09/23 02:26:34;;;;;;;57.42;34.60;;;12.30;99.90;;;;;;5065635;28;20028;-47
2021/09/23 02:28:59;;;;;;;61.10;36.50;;;12.20;99.90;;;;;;5054994;28;20521;-49
2021/09/23 02:31:25;;;;;;;53.03;34.28;;;12.30;99.90;;;;;;5061748;28;20024;-47
2021/09/23 02:33:50;;;;;;;61.22;36.20;;;12.20;99.90;;;;;;5062210;28;20020;-48
2021/09/23 02:36:16;;;;;;;63.38;39.67;;;12.20;99.90;;;;;;5059264;28;20028;-47
2021/09/23 02:38:41;;;;;;;65.50;39.20;;;12.20;99.90;;;;;;5066734;28;20506;-48
2021/09/23 02:41:07;;;;;;;57.95;34.63;;;12.20;99.90;;;;;;5050265;28;20017;-48
2021/09/23 02:43:32;;;;;;;55.38;35.97;;;12.20;99.90;;;;;;5049302;28;20025;-47
2021/09/23 02:45:58;;;;;;;57.58;36.88;;;12.10;99.90;;;;;;5043823;28;20053;-48
2021/09/23 02:48:23;;;;;;;66.65;40.47;;;12.10;99.90;;;;;;5037977;28;20104;-47
2021/09/23 02:50:49;;;;;;;67.97;39.70;;;12.10;99.90;;;;;;5034811;28;20034;-47
2021/09/23 02:53:14;;;;;;;70.25;41.25;;;12.00;99.90;;;;;;5037719;28;20112;-48
2021/09/23 02:55:40;;;;;;;65.75;39.60;;;12.00;99.90;;;;;;5038381;28;20057;-47
2021/09/23 02:58:06;;;;;;;67.60;39.50;;;12.00;99.90;;;;;;5035083;28;20478;-47
2021/09/23 03:00:31;;;;;;;63.17;38.95;;;12.00;99.90;;;;;;5044209;28;21154;-48
2021/09/23 03:02:57;;;;;;;61.08;38.35;;;12.00;99.90;;;;;;5035107;28;20065;-47
2021/09/23 03:05:22;;;;;;;67.63;42.63;;;12.00;99.90;;;;;;5029374;28;20029;-46
2021/09/23 03:07:48;;;;;;;63.90;38.60;;;11.90;99.90;;;;;;5045913;28;20032;-47
2021/09/23 03:10:13;;;;;;;61.67;38.63;;;11.90;99.90;;;;;;5052928;28;20490;-50
2021/09/23 03:12:39;;;;;;;70.07;39.45;;;11.90;99.90;;;;;;5046751;28;20151;-47
2021/09/23 03:15:05;;;;;;;66.00;37.63;;;11.90;99.90;;;;;;5053130;28;20028;-47
2021/09/23 03:17:30;;;;;;;60.78;37.03;;;11.90;99.90;;;;;;5058181;28;20040;-50
2021/09/23 03:19:56;;;;;;;75.28;39.60;;;11.90;99.90;;;;;;5039324;28;20528;-49
2021/09/23 03:22:21;;;;;;;73.60;41.50;;;11.90;99.90;;;;;;5052454;28;20026;-47
2021/09/23 03:24:50;;;;;;;64.63;38.60;;;11.80;99.90;;;;;;5039785;28;20021;-47
2021/09/23 03:27:16;;;;;;;69.95;42.45;;;11.90;99.90;;;;;;5045671;28;20029;-47
2021/09/23 03:29:43;;;;;;;68.28;39.67;;;11.80;99.90;;;;;;5063278;28;20041;-50
2021/09/23 03:32:09;;;;;;;67.95;39.90;;;11.80;99.90;;;;;;5064821;28;20024;-49
2021/09/23 03:34:35;;;;;;;67.40;40.92;;;11.70;99.90;;;;;;5058952;28;20017;-47
2021/09/23 03:37:00;;;;;;;65.95;40.15;;;11.80;99.90;;;;;;5061896;28;20025;-49
2021/09/23 03:39:26;;;;;;;65.25;37.38;;;11.80;99.90;;;;;;5066702;28;20032;-47
2021/09/23 03:41:52;;;;;;;68.53;41.60;;;11.70;99.90;;;;;;5061679;28;20259;-48
2021/09/23 03:44:17;;;;;;;72.13;43.45;;;11.70;99.90;;;;;;5061793;28;20022;-48
2021/09/23 03:46:43;;;;;;;77.35;42.75;;;11.60;99.90;;;;;;5054800;28;20029;-47
2021/09/23 03:49:09;;;;;;;68.13;40.20;;;11.70;99.90;;;;;;5070752;28;20482;-50
2021/09/23 03:51:34;;;;;;;72.65;41.70;;;11.60;99.90;;;;;;5070520;28;20520;-47
2021/09/23 03:54:00;;;;;;;65.05;40.00;;;11.60;99.90;;;;;;5070533;28;20036;-48
2021/09/23 03:56:25;;;;;;;69.43;40.95;;;11.60;99.90;;;;;;5065876;28;20101;-47
2021/09/23 03:58:51;;;;;;;69.28;43.22;;;11.60;99.90;;;;;;5060022;28;20020;-46
2021/09/23 04:01:16;;;;;;;75.10;42.50;;;11.60;99.90;;;;;;5066965;28;20024;-47
2021/09/23 04:03:42;;;;;;;80.95;42.33;;;11.50;99.90;;;;;;5062034;28;20017;-47
2021/09/23 04:06:07;;;;;;;63.25;38.15;;;11.60;99.90;;;;;;5069890;28;20479;-47
2021/09/23 04:08:33;;;;;;;75.70;43.53;;;11.60;99.90;;;;;;5069871;28;20310;-48
2021/09/23 04:10:59;;;;;;;75.43;43.05;;;11.60;99.90;;;;;;5066595;28;20028;-47
2021/09/23 04:13:24;;;;;;;71.55;42.13;;;11.60;99.90;;;;;;5051550;28;20091;-47
2021/09/23 04:15:50;;;;;;;67.93;40.75;;;11.60;99.90;;;;;;5067366;28;20035;-47
2021/09/23 04:18:17;;;;;;;66.72;40.70;;;11.60;99.90;;;;;;5050606;28;20053;-47
2021/09/23 04:20:47;;;;;;;69.80;40.53;;;11.60;99.90;;;;;;5066441;28;20140;-47
2021/09/23 04:23:14;;;;;;;70.68;41.55;;;11.70;99.90;;;;;;5070512;28;20024;-47
2021/09/23 04:25:40;;;;;;;65.70;39.72;;;11.70;99.90;;;;;;5062171;28;20040;-47
2021/09/23 04:28:06;;;;;;;75.68;42.28;;;11.70;99.90;;;;;;5059413;28;20088;-47
2021/09/23 04:30:32;;;;;;;63.95;37.15;;;11.70;99.90;;;;;;5068855;28;20465;-48
2021/09/23 04:32:57;;;;;;;75.15;43.13;;;11.70;99.90;;;;;;5053032;28;20659;-46
2021/09/23 04:35:23;;;;;;;73.28;42.38;;;11.70;99.90;;;;;;5050382;28;20039;-49
2021/09/23 04:37:48;;;;;;;71.68;42.10;;;11.70;99.90;;;;;;5047810;28;20437;-47
2021/09/23 04:40:14;;;;;;;76.47;42.55;;;11.70;99.90;;;;;;5038869;28;20507;-48
2021/09/23 04:42:43;;;;;;;76.50;40.70;;;11.70;99.90;;;;;;5038749;28;20021;-47
2021/09/23 04:45:10;;;;;;;68.55;38.95;;;11.70;99.90;;;;;;5038478;28;20017;-48
2021/09/23 04:47:35;;;;;;;67.90;39.38;;;11.70;99.90;;;;;;5036930;28;20037;-47
2021/09/23 04:50:00;;;;;;;65.47;39.50;;;11.70;99.90;;;;;;5045058;28;20028;-47
2021/09/23 04:52:26;;;;;;;65.00;39.80;;;11.70;99.90;;;;;;5037048;28;20037;-48
2021/09/23 04:54:51;;;;;;;65.32;38.13;;;11.70;99.90;;;;;;5044381;28;20068;-48
2021/09/23 04:57:17;;;;;;;73.90;40.75;;;11.70;99.90;;;;;;5037885;28;20131;-49
2021/09/23 04:59:42;;;;;;;68.43;38.53;;;11.70;99.90;;;;;;5044383;28;20037;-48
2021/09/23 05:02:08;;;;;;;72.97;40.97;;;11.70;99.90;;;;;;5042060;28;20452;-48
2021/09/23 05:04:33;;;;;;;70.35;39.80;;;11.80;99.90;;;;;;5039184;28;20022;-50
2021/09/23 05:06:59;;;;;;;71.55;40.17;;;11.80;99.90;;;;;;5043761;28;20017;-47
2021/09/23 05:09:24;;;;;;;72.85;40.28;;;11.80;99.90;;;;;;5039814;28;20029;-47
2021/09/23 05:11:50;;;;;;;73.68;39.13;;;11.80;99.90;;;;;;5044695;28;20242;-47
2021/09/23 05:14:17;;;;;;;71.15;40.38;;;11.90;99.90;;;;;;5039222;28;20028;-50
2021/09/23 05:16:44;;;;;;;61.92;37.15;;;11.90;99.90;;;;;;5042535;28;20028;-50
2021/09/23 05:19:12;;;;;;;65.35;40.35;;;11.90;99.90;;;;;;5036421;28;20026;-47
2021/09/23 05:21:37;;;;;;;67.07;38.60;;;12.00;99.90;;;;;;5042993;28;20083;-49
2021/09/23 05:24:04;;;;;;;65.72;38.03;;;12.00;99.90;;;;;;5067762;28;20028;-48
2021/09/23 05:26:30;;;;;;;66.25;39.60;;;12.00;99.90;;;;;;5052855;28;20547;-47
2021/09/23 05:28:55;;;;;;;69.60;39.92;;;12.00;99.90;;;;;;5050567;28;20044;-47
2021/09/23 05:31:21;;;;;;;64.93;37.33;;;12.10;99.90;;;;;;5042823;28;20184;-47
2021/09/23 05:33:47;;;;;;;66.32;37.85;;;12.10;99.90;;;;;;5044378;28;20087;-47
2021/09/23 05:36:14;;;;;;;72.88;41.38;;;12.10;99.90;;;;;;5044818;28;20496;-47
2021/09/23 05:38:40;;;;;;;64.97;38.10;;;12.10;99.90;;;;;;5042938;28;20159;-47
2021/09/23 05:41:05;;;;;;;68.65;40.05;;;12.20;99.90;;;;;;5042306;28;20100;-48
2021/09/23 05:43:31;;;;;;;65.35;37.50;;;12.10;99.90;;;;;;5038738;28;20029;-48
2021/09/23 05:45:56;;;;;;;74.13;37.92;;;12.20;99.90;;;;;;5044404;28;20086;-47
2021/09/23 05:48:22;;;;;;;66.13;37.08;;;12.20;99.90;;;;;;5057241;28;20028;-49
2021/09/23 05:50:48;;;;;;;63.38;36.95;;;12.30;99.90;;;;;;5058208;28;20467;-46
2021/09/23 05:53:13;;;;;;;61.03;35.83;;;12.30;99.90;;;;;;5059921;28;20023;-46
2021/09/23 05:55:39;;;;;;;65.28;36.67;;;12.40;99.90;;;;;;5068181;28;20139;-48
2021/09/23 05:58:05;;;;;;;61.65;35.13;;;12.40;99.90;;;;;;5052525;28;20356;-49
2021/09/23 06:00:31;;;;;;;67.57;37.28;;;12.40;99.90;;;;;;5053099;28;20036;-50
2021/09/23 06:02:57;;;;;;;64.07;36.15;;;12.50;99.90;;;;;;5043599;28;20018;-48
2021/09/23 06:05:22;;;;;;;59.92;33.08;;;12.60;99.90;;;;;;5058085;28;20025;-49
2021/09/23 06:07:48;;;;;;;59.50;33.80;;;12.70;99.90;;;;;;5065383;28;20135;-49
2021/09/23 06:10:13;;;;;;;60.53;35.25;;;12.60;99.90;;;;;;5038719;28;20032;-51
2021/09/23 06:12:41;;;;;;;55.85;33.33;;;12.70;99.90;;;;;;5040829;28;20033;-49
2021/09/23 06:15:08;;;;;;;57.30;34.50;;;12.70;99.90;;;;;;5042501;28;20374;-48
2021/09/23 06:17:33;;;;;;;61.75;33.65;;;12.80;99.90;;;;;;5040609;28;20029;-48
2021/09/23 06:19:59;;;;;;;55.22;33.70;;;12.80;99.90;;;;;;5040146;28;20028;-50
2021/09/23 06:22:24;;;;;;;51.63;31.77;;;12.80;99.90;;;;;;5043799;28;20033;-48
2021/09/23 06:24:50;;;;;;;62.30;35.13;;;12.90;99.90;;;;;;5039555;28;20029;-49
2021/09/23 06:27:15;;;;;;;58.70;33.40;;;13.00;99.90;;;;;;5040406;28;20550;-48
2021/09/23 06:29:41;;;;;;;52.38;30.83;;;13.00;99.90;;;;;;5042441;28;20048;-50
2021/09/23 06:32:06;;;;;;;60.90;33.03;;;13.10;99.90;;;;;;5037614;28;20104;-49
2021/09/23 06:34:32;;;;;;;60.78;34.00;;;13.10;99.90;;;;;;5039450;28;20021;-48
2021/09/23 06:36:58;;;;;;;51.08;30.70;;;13.20;99.90;;;;;;5055856;28;20388;-50
2021/09/23 06:39:23;;;;;;;53.40;30.55;;;13.20;99.90;;;;;;5064325;28;20482;-48
2021/09/23 06:41:49;;;;;;;52.95;31.33;;;13.20;99.90;;;;;;5046859;28;20056;-48
2021/09/23 06:44:14;;;;;;;51.42;31.63;;;13.30;99.90;;;;;;5053067;28;20513;-51
2021/09/23 06:46:40;;;;;;;57.72;31.73;;;13.40;99.90;;;;;;5042818;28;20025;-51
2021/09/23 06:49:05;;;;;;;49.92;28.67;;;13.40;99.90;;;;;;5065784;28;20440;-50
2021/09/23 06:51:31;;;;;;;50.38;30.13;;;13.60;99.90;;;;;;5067235;28;20051;-48
2021/09/23 06:53:57;;;;;;;48.55;28.83;;;13.60;99.90;;;;;;5056776;28;20271;-50
2021/09/23 06:56:23;;;;;;;51.88;29.92;;;13.70;99.90;;;;;;5059477;28;20033;-50
2021/09/23 06:58:49;;;;;;;46.30;28.63;;;13.70;99.90;;;;;;5066342;28;20021;-51
2021/09/23 07:01:14;;;;;;;45.58;26.60;;;13.80;99.90;;;;;;5051464;28;20021;-51
2021/09/23 07:03:40;;;;;;;45.92;27.27;;;13.80;99.90;;;;;;5063505;28;20520;-51
2021/09/23 07:06:05;;;;;;;44.50;27.85;;;13.90;99.90;;;;;;5059695;28;20090;-51
2021/09/23 07:08:31;;;;;;;51.10;28.85;;;13.90;99.90;;;;;;5058767;28;20032;-51
2021/09/23 07:10:56;;;;;;;41.20;25.58;;;14.00;99.90;;;;;;5067764;28;20028;-50
2021/09/23 07:13:22;;;;;;;45.25;25.85;;;14.00;99.90;;;;;;5068054;28;20111;-50
2021/09/23 07:15:47;;;;;;;43.20;25.90;;;14.20;99.90;;;;;;5059507;28;20402;-51
2021/09/23 07:18:13;;;;;;;41.33;25.45;;;14.30;99.90;;;;;;5059958;28;20040;-51
2021/09/23 07:20:39;;;;;;;44.22;24.88;;;14.40;99.90;;;;;;5057547;28;20009;-51
2021/09/23 07:23:05;;;;;;;35.42;23.25;;;14.40;99.90;;;;;;5059236;28;20370;-51
2021/09/23 07:25:32;;;;;;;47.47;23.92;;;14.50;99.90;;;;;;5068327;28;20074;-51
2021/09/23 07:27:57;;;;;;;37.05;21.88;;;14.50;99.90;;;;;;5051544;28;20055;-50
2021/09/23 07:30:23;;;;;;;37.17;23.98;;;14.70;99.90;;;;;;5062115;28;20028;-51
2021/09/23 07:32:49;;;;;;;41.00;23.73;;;14.70;99.90;;;;;;5068047;28;20022;-50
2021/09/23 07:35:15;;;;;;;34.92;20.38;;;14.80;99.90;;;;;;5059945;28;20429;-51
2021/09/23 07:37:40;;;;;;;38.13;22.98;;;14.80;99.90;;;;;;5063395;28;20143;-49
2021/09/23 07:40:09;;;;;;;37.38;22.00;;;14.90;99.90;;;;;;5068267;28;20029;-51
2021/09/23 07:42:36;;;;;;;34.97;21.40;;;14.90;99.90;;;;;;5057591;28;20508;-49
2021/09/23 07:45:04;;;;;;;36.47;21.05;;;15.00;99.90;;;;;;5059450;28;20479;-50
2021/09/23 07:47:30;;;;;;;30.38;18.58;;;15.20;99.90;;;;;;5067619;28;20465;-51
2021/09/23 07:49:55;;;;;;;32.90;20.50;;;15.30;99.90;;;;;;5060871;28;20322;-50
2021/09/23 07:52:20;;;;;;;35.28;19.20;;;15.50;99.90;;;;;;5059862;28;20505;-51
2021/09/23 07:54:47;;;;;;;28.73;17.65;;;15.60;99.90;;;;;;5060455;28;20022;-51
2021/09/23 07:57:14;;;;;;;27.58;17.55;;;15.90;99.90;;;;;;5058913;28;20055;-51
2021/09/23 07:59:39;;;;;;;38.10;19.10;;;15.90;99.90;;;;;;5067740;28;20028;-51
2021/09/23 08:02:05;;;;;;;29.00;17.52;;;15.90;99.90;;;;;;5047436;28;20017;-51
2021/09/23 08:04:31;;;;;;;27.52;17.45;;;16.00;99.90;;;;;;5062938;28;20029;-51
2021/09/23 08:06:57;;;;;;;30.13;17.70;;;16.00;99.90;;;;;;5052912;28;20601;-51
2021/09/23 08:09:23;;;;;;;31.40;17.80;;;16.10;99.90;;;;;;5062952;28;20020;-50
2021/09/23 08:11:48;;;;;;;29.55;17.02;;;16.10;99.90;;;;;;5061764;28;20068;-51
2021/09/23 08:14:14;;;;;;;30.98;18.10;;;16.20;99.90;;;;;;5062973;28;20133;-51
2021/09/23 08:16:39;;;;;;;28.85;16.55;;;16.40;99.90;;;;;;5070629;28;20028;-51
2021/09/23 08:19:05;;;;;;;27.90;17.25;;;16.50;99.90;;;;;;5063895;28;20541;-51
2021/09/23 08:21:31;;;;;;;28.88;17.13;;;16.70;99.90;;;;;;5044266;28;20029;-50
2021/09/23 08:23:56;;;;;;;24.70;15.75;;;16.70;99.90;;;;;;5052681;28;20287;-51
2021/09/23 08:26:26;;;;;;;22.27;15.15;;;16.70;99.90;;;;;;5055385;28;20055;-51
2021/09/23 08:28:52;;;;;;;25.35;17.45;;;16.70;99.90;;;;;;5068559;28;20474;-50
2021/09/23 08:31:19;;;;;;;26.95;14.98;;;16.80;99.90;;;;;;5053585;28;20039;-51
2021/09/23 08:33:45;;;;;;;20.25;14.60;;;16.60;99.90;;;;;;5062265;28;20478;-52
2021/09/23 08:36:10;;;;;;;22.20;14.68;;;17.00;99.90;;;;;;5057767;28;20031;-51
2021/09/23 08:38:36;;;;;;;23.10;14.70;;;17.30;99.90;;;;;;5065780;28;20032;-51
2021/09/23 08:41:03;;;;;;;23.95;13.75;;;17.50;99.90;;;;;;5050065;28;20494;-52
2021/09/23 08:43:29;;;;;;;25.13;15.35;;;17.50;99.90;;;;;;5053057;28;20063;-51
2021/09/23 08:45:55;;;;;;;23.52;14.18;;;17.30;99.90;;;;;;5067988;28;20020;-51
2021/09/23 08:48:22;;;;;;;28.38;15.57;;;17.20;99.90;;;;;;5051898;28;20051;-51
2021/09/23 08:50:48;;;;;;;27.85;14.93;;;17.20;99.90;;;;;;5044047;28;20033;-51
2021/09/23 08:53:13;;;;;;;21.65;13.68;;;17.10;99.90;;;;;;5058237;28;20029;-51
2021/09/23 08:55:39;;;;;;;23.35;14.13;;;17.00;99.90;;;;;;5055622;28;20388;-51
2021/09/23 08:58:06;;;;;;;20.98;14.05;;;17.10;99.90;;;;;;5061608;28;20036;-51
2021/09/23 09:00:34;;;;;;;22.10;13.13;;;16.80;99.90;;;;;;5057402;28;20471;-51
2021/09/23 09:03:08;;;;;;;22.35;15.02;;;16.90;99.90;;;;;;5049035;28;20645;-51
2021/09/23 09:05:36;;;;;;;23.35;14.32;;;17.10;99.90;;;;;;5047086;28;20060;-51
2021/09/23 09:08:07;;;;;;;21.67;14.00;;;17.50;99.90;;;;;;5059973;28;20056;-52
2021/09/23 09:10:33;;;;;;;;;;;18.20;99.90;;;;;;5070679;28;20024;-52
2021/09/23 09:13:06;;;;;;;18.92;12.68;;;19.50;99.90;;;;;;5068456;28;19942;-52
2021/09/23 09:15:35;;;;;;;16.35;11.70;;;20.80;98.60;;;;;;5060271;28;20104;-52
2021/09/23 09:18:21;;;;;;;23.73;11.95;;;21.70;95.90;;;;;;5069172;28;20024;-52
2021/09/23 09:21:07;;;;;;;20.80;11.23;;;22.40;93.70;;;;;;5052269;28;20021;-52
2021/09/23 09:23:58;;;;;;;14.02;10.18;;;22.20;93.30;;;;;;5065077;28;20021;-52
2021/09/23 09:26:35;;;;;;;16.92;11.55;;;22.10;93.50;;;;;;5055580;28;20013;-52
2021/09/23 09:29:05;;;;;;;21.77;10.98;;;22.10;91.70;;;;;;5068807;28;20036;-52
2021/09/23 09:31:31;;;;;;;18.73;10.70;;;21.00;92.70;;;;;;5060959;28;20032;-52
2021/09/23 09:34:00;;;;;;;16.27;10.60;;;20.60;94.20;;;;;;5068367;28;20478;-52
2021/09/23 09:36:38;;;;;;;22.17;11.10;;;20.80;94.30;;;;;;5064144;28;20389;-52
2021/09/23 09:39:05;;;;;;;13.07;9.40;;;21.40;93.40;;;;;;5060099;28;20032;-52
2021/09/23 09:41:34;;;;;;;19.35;10.20;;;21.80;92.90;;;;;;5069708;28;20557;-52
2021/09/23 09:44:02;;;;;;;16.60;9.40;;;21.40;92.60;;;;;;5057097;28;20035;-52
2021/09/23 09:46:30;;;;;;;13.77;8.70;;;21.30;92.80;;;;;;5063582;28;20030;-52
2021/09/23 09:48:56;;;;;;;16.20;9.60;;;21.10;92.70;;;;;;5065342;28;20020;-52
2021/09/23 09:51:33;;;;;;;15.02;9.27;;;20.70;92.90;;;;;;5049954;28;20484;-52
2021/09/23 09:53:59;;;;;;;16.88;9.85;;;20.50;92.80;;;;;;5059493;28;20072;-52
2021/09/23 09:56:26;;;;;;;13.23;8.93;;;20.30;93.10;;;;;;5063025;28;20024;-51
2021/09/23 09:59:06;;;;;;;12.38;8.70;;;20.10;92.80;;;;;;5060797;28;20059;-51
2021/09/23 10:01:32;;;;;;;15.00;7.93;;;19.60;94.00;;;;;;5067517;28;20016;-52
2021/09/23 10:03:58;;;;;;;15.98;8.73;;;19.60;94.20;;;;;;5060756;28;20086;-51
2021/09/23 10:06:25;;;;;;;15.43;8.07;;;19.60;94.10;;;;;;5069237;28;20078;-51
2021/09/23 10:08:51;;;;;;;19.10;8.45;;;19.90;94.00;;;;;;5055576;28;20040;-52
2021/09/23 10:11:18;;;;;;;16.40;8.27;;;19.80;93.80;;;;;;5068959;28;20024;-52
2021/09/23 10:13:44;;;;;;;10.25;7.85;;;20.10;93.10;;;;;;5069120;28;20579;-52
2021/09/23 10:16:11;;;;;;;14.32;7.07;;;20.40;92.70;;;;;;5049392;28;20029;-52
2021/09/23 10:18:37;;;;;;;13.50;9.00;;;20.80;91.90;;;;;;5063952;28;20444;-51
2021/09/23 10:21:03;;;;;;;11.85;8.00;;;21.00;90.70;;;;;;5052115;28;20438;-52
2021/09/23 10:23:31;;;;;;;12.32;6.55;;;21.00;90.60;;;;;;5063512;28;20116;-52
2021/09/23 10:25:59;;;;;;;14.02;7.38;;;21.10;90.80;;;;;;5064800;28;20016;-52
2021/09/23 10:28:26;;;;;;;14.52;7.68;;;21.00;90.60;;;;;;5062018;28;20035;-52
2021/09/23 10:30:52;;;;;;;17.33;6.57;;;20.80;90.50;;;;;;5066984;28;20032;-51
2021/09/23 10:33:18;;;;;;;13.95;7.05;;;20.40;90.80;;;;;;5060471;28;20020;-52
2021/09/23 10:35:44;;;;;;;11.70;5.88;;;20.30;90.60;;;;;;5067631;28;20432;-52
2021/09/23 10:38:11;;;;;;;9.98;6.63;;;20.40;90.50;;;;;;5068001;28;20525;-52
2021/09/23 10:40:39;;;;;;;15.38;5.45;;;20.40;90.00;;;;;;5068615;28;20081;-52
2021/09/23 10:43:09;;;;;;;13.43;5.43;;;20.50;90.10;;;;;;5047469;28;20611;-52
2021/09/23 10:45:35;;;;;;;9.05;5.40;;;20.80;87.40;;;;;;5064175;28;20386;-52
2021/09/23 10:48:03;;;;;;;9.20;4.90;;;20.70;86.10;;;;;;5063928;28;20028;-52
2021/09/23 10:50:32;;;;;;;10.45;5.10;;;20.40;87.10;;;;;;5050620;28;20053;-51
2021/09/23 10:52:58;;;;;;;8.68;5.43;;;20.50;86.20;;;;;;5057433;28;20025;-51
2021/09/23 10:55:26;;;;;;;11.98;4.70;;;20.60;85.60;;;;;;5068712;28;20036;-51
2021/09/23 10:57:55;;;;;;;7.65;4.72;;;20.80;85.30;;;;;;5052328;28;20020;-52
2021/09/23 11:00:25;;;;;;;15.68;5.53;;;21.00;86.20;;;;;;5061066;28;20043;-52
2021/09/23 11:02:52;;;;;;;11.47;5.80;;;21.10;84.40;;;;;;5053678;28;20111;-52
2021/09/23 11:05:19;;;;;;;9.10;4.88;;;21.30;82.90;;;;;;5061704;28;20020;-51
2021/09/23 11:07:46;;;;;;;8.43;4.90;;;21.40;82.30;;;;;;5056410;28;20068;-52
2021/09/23 11:10:25;;;;;;;8.13;4.60;;;21.90;81.90;;;;;;5028471;28;20037;-52
2021/09/23 11:12:56;;;;;;;10.30;4.90;;;22.30;80.00;;;;;;5029704;28;20044;-52
2021/09/23 11:15:27;;;;;;;10.13;4.63;;;22.50;78.60;;;;;;5058615;28;20126;-52
2021/09/23 11:17:55;;;;;;;9.65;4.90;;;22.30;77.60;;;;;;5067541;28;20058;-52
2021/09/23 11:20:26;;;;;;;6.55;3.90;;;22.70;78.90;;;;;;5057526;28;20017;-52
2021/09/23 11:23:08;;;;;;;10.00;4.60;;;23.20;77.80;;;;;;5058445;28;20027;-52
2021/09/23 11:25:50;;;;;;;8.32;4.75;;;23.10;73.90;;;;;;5062110;28;20231;-52
2021/09/23 11:28:20;;;;;;;10.15;4.80;;;22.90;76.40;;;;;;5053653;28;20029;-52
2021/09/23 11:30:46;;;;;;;8.43;4.53;;;23.80;73.20;;;;;;5068603;28;20399;-52
2021/09/23 11:33:14;;;;;;;11.55;4.90;;;24.20;71.00;;;;;;5068580;28;20036;-52
2021/09/23 11:35:43;;;;;;;13.80;4.97;;;23.70;71.10;;;;;;5058363;28;20039;-52
2021/09/23 11:38:10;;;;;;;8.77;4.15;;;24.00;71.00;;;;;;5051184;28;20025;-52
2021/09/23 11:40:38;;;;;;;6.35;4.13;;;24.00;70.90;;;;;;5065929;28;20039;-52
2021/09/23 11:43:10;;;;;;;9.73;4.82;;;23.80;71.90;;;;;;5063277;28;20020;-52
2021/09/23 11:45:44;;;;;;;10.82;5.05;;;23.70;71.80;;;;;;5061571;28;20498;-52
2021/09/23 11:48:12;;;;;;;5.68;4.47;;;23.40;71.10;;;;;;5051512;28;20028;-52
2021/09/23 11:51:14;;;;;;;6.72;4.53;;;23.50;71.10;;;;;;5033698;28;20029;-52
2021/09/23 11:53:40;;;;;;;9.75;5.43;;;23.20;71.80;;;;;;5044498;28;20124;-52
2021/09/23 11:56:12;;;;;;;9.07;5.07;;;22.90;74.80;;;;;;5052715;28;20109;-52
2021/09/23 11:58:40;;;;;;;13.07;5.28;;;22.70;74.20;;;;;;5062745;28;20590;-52
2021/09/23 12:01:06;;;;;;;9.07;5.15;;;22.80;74.40;;;;;;5068691;28;20017;-52
2021/09/23 12:03:41;;;;;;;12.27;5.82;;;23.00;73.90;;;;;;5062667;28;20027;-52
2021/09/23 12:06:12;;;;;;;10.95;5.28;;;23.20;74.00;;;;;;5071279;28;20096;-52
2021/09/23 12:08:38;;;;;;;7.00;4.57;;;23.40;74.50;;;;;;5070834;28;20086;-52
2021/09/23 12:11:07;;;;;;;9.30;5.30;;;23.30;73.40;;;;;;5066704;28;20029;-52
2021/09/23 12:13:42;;;;;;;7.88;4.85;;;23.30;74.70;;;;;;5061198;28;20525;-52
2021/09/23 12:16:18;;;;;;;11.02;6.70;;;23.20;75.50;;;;;;5071049;28;20107;-52
2021/09/23 12:18:46;;;;;;;11.98;6.18;;;22.90;75.30;;;;;;5064151;28;20021;-52
2021/09/23 12:21:20;;;;;;;14.90;6.88;;;22.60;75.90;;;;;;5061738;28;20024;-52
2021/09/23 12:23:50;;;;;;;12.85;6.07;;;22.30;77.50;;;;;;5071236;28;20028;-52
2021/09/23 12:26:19;;;;;;;;;;;22.00;79.50;;;;;;5071407;28;20020;-52
2021/09/23 12:29:00;;;;;;;10.40;6.53;;;21.90;80.00;;;;;;5070818;28;19904;-52
2021/09/23 12:31:38;;;;;;;12.00;7.70;;;21.90;79.70;;;;;;5060999;28;20526;-51